Terminal Aerodrome Forecast
Issued by NWS Cleveland, OH

Home | Current Version | Previous Version | Text Only | Print | Product List | Glossary On
Versions: 1 2 3 4 5 6 7 8 9 10 11 12 13 14 15 16 17
000
FTUS41 KCLE 272332
TAFYNG
TAF
KYNG 272332Z 2800/2824 20010G20KT P6SM BKN050
      TEMPO 2801/2804 27015G25KT 2SM TSRA OVC035CB
     FM280400 22006KT P6SM VCSH BKN070
     FM280600 27003KT P6SM BKN120
     FM280900 32003KT 5SM BR SKC
     FM281400 04005KT P6SM SKC=

USA.gov is the U.S. government's official web portal to all federal, state and local government web resources and services.